Flight Track Log - Related Links

Times and Time Zones

All times are in EDT time to prevent confusion due to time zone crossing. See the KAP927 flight status page for this flight to view local times or setup timezone preferences in your user account.

Time Position Orientation Groundspeed Altitude Reporting Facility
EDT Latitude Longitude Course Direction KTS MPH feet Rate Location/Type
Sat 02:22:46 PM 42.7442 -73.8367 305° West 120 138 1,500  Level Boston Center
Sat 02:23:47 PM 42.7731 -73.8572 332° Northwest 127 146 1,900 443 Climbing Boston Center
Sat 02:24:48 PM 42.8019 -73.8833 326° Northwest 123 142 2,400 574 Climbing Boston Center
Sat 02:25:42 PM 42.8286 -73.9067 327° Northwest 125 144 3,000 574 Climbing Boston Center
Sat 02:26:43 PM 42.8594 -73.9356 326° Northwest 132 152 3,500 393 Climbing Boston Center
Sat 02:27:44 PM 42.8906 -73.9592 331° Northwest 137 158 3,800 397 Climbing Boston Center
Sat 02:28:44 PM 42.9256 -73.9911 326° Northwest 138 159 4,300 496 Climbing Boston Center
Sat 02:29:45 PM 42.9606 -74.0175 331° Northwest 139 160 4,800 393 Climbing Boston Center
Sat 02:30:46 PM 42.9936 -74.0439 330° Northwest 140 161 5,100 397 Climbing Boston Center
Sat 02:31:46 PM 43.0286 -74.0675 334° Northwest 141 162 5,600 446 Climbing Boston Center
Sat 02:32:47 PM 43.0614 -74.0969 327° Northwest 141 162 6,000 492 Climbing Boston Center
Sat 02:33:48 PM 43.0944 -74.1261 327° Northwest 138 159 6,600 525 Climbing Boston Center
Sat 02:34:07 PM 43.1047 -74.1350 328° Northwest 138 159 6,700 492 Climbing Boston Center
Sat 02:34:49 PM 43.1253 -74.1525 328° Northwest 139 160 7,100 500 Climbing Boston Center
Sat 02:35:07 PM 43.1378 -74.1586 340° North 143 165 7,200 385 Climbing Boston Center
Sat 02:36:07 PM 43.1706 -74.1881 327° Northwest 143 165 7,600 500 Climbing Boston Center
Sat 02:37:07 PM 43.2056 -74.2147 331° Northwest 136 157 8,200 450 Climbing Boston Center
Sat 02:38:07 PM 43.2386 -74.2442 327° Northwest 141 162 8,500 400 Climbing Boston Center
Sat 02:39:07 PM 43.2694 -74.2708 328° Northwest 141 162 9,000 550 Climbing Boston Center
Sat 02:40:07 PM 43.3003 -74.2944 331° Northwest 136 157 9,600 450 Climbing Boston Center
Sat 02:41:07 PM 43.3311 -74.3183 331° Northwest 129 148 9,900 200 Climbing Boston Center
Sat 02:42:07 PM 43.3661 -74.3481 328° Northwest 135 155 10,000 50 Climbing Boston Center
Sat 02:43:07 PM 43.4031 -74.3778 330° Northwest 146 168 10,000  Level Boston Center
Sat 02:44:07 PM 43.4422 -74.4075 331° Northwest 146 168 10,000  Level Boston Center
Sat 02:45:07 PM 43.4792 -74.4403 327° Northwest 151 174 10,000  Level Boston Center
Sat 02:46:07 PM 43.5161 -74.4728 327° Northwest 156 180 10,000  Level Boston Center
Sat 02:47:07 PM 43.5550 -74.5028 331° Northwest 161 185 10,000  Level Boston Center
Sat 02:48:07 PM 43.5942 -74.5328 331° Northwest 161 185 10,000  Level Boston Center
Sat 02:49:07 PM 43.6372 -74.5689 329° Northwest 167 192 10,000 -50 Level Boston Center
Sat 02:50:07 PM 43.6761 -74.6044 327° Northwest 167 192 9,900  Descending Boston Center
Sat 02:51:07 PM 43.7172 -74.6347 332° Northwest 167 192 10,000 50 Climbing Boston Center
Sat 02:52:07 PM 43.7564 -74.6678 329° Northwest 167 192 10,000 -50 Level Boston Center
Sat 02:53:07 PM 43.7931 -74.7008 327° Northwest 167 192 9,900  Descending Boston Center
Sat 02:54:07 PM 43.8322 -74.7311 331° Northwest 167 192 10,000 50 Climbing Boston Center
Sat 02:55:07 PM 43.8647 -74.7639 324° Northwest 167 192 10,000  Level Boston Center
Sat 02:56:07 PM 43.9036 -74.7972 328° Northwest 167 192 10,000  Level Boston Center
Sat 02:57:07 PM 43.9428 -74.8306 329° Northwest 161 185 10,000 -200 Level Boston Center
Sat 02:58:07 PM 43.9794 -74.8636 327° Northwest 161 185 9,600 -550 Descending Boston Center
Sat 02:59:07 PM 44.0244 -74.9003 330° Northwest 166 191 8,900 -700 Descending Boston Center
Sat 03:00:07 PM 44.0717 -74.9397 329° Northwest 178 205 8,200 -600 Descending Boston Center
Sat 03:01:07 PM 44.1167 -74.9764 330° Northwest 183 211 7,700 -650 Descending Boston Center
Sat 03:02:07 PM 44.1617 -75.0186 326° Northwest 183 211 6,900 -700 Descending Boston Center
Sat 03:03:07 PM 44.2067 -75.0556 330° Northwest 183 211 6,300 -550 Descending Boston Center
Sat 03:04:07 PM 44.2494 -75.0922 328° Northwest 183 211 5,800 -650 Descending Boston Center
Sat 03:05:07 PM 44.2944 -75.1261 332° Northwest 183 211 5,000 -650 Descending Boston Center
Sat 03:06:07 PM 44.3375 -75.1656 327° Northwest 183 211 4,500 -500 Descending Boston Center
Sat 03:07:07 PM 44.3783 -75.1967 331° Northwest 183 211 4,000 -450 Descending Boston Center
Sat 03:08:07 PM 44.4211 -75.2336 328° Northwest 183 211 3,600 -400 Descending Boston Center
Sat 03:09:07 PM 44.4622 -75.2586 337° Northwest 172 198 3,200 -350 Descending Boston Center
Sat 03:10:07 PM 44.5053 -75.2928 330° Northwest 172 198 2,900 -300 Descending Boston Center
Sat 03:12:00 PM 44.5635 -75.3574 322° Northwest  Level FlightAware Approximate
Sat 03:19:00 PM 44.6667 -75.4500 325° Northwest  Level FlightAware Approximate
Sat 03:20:00 PM 44.6819 -75.4655 325° Northwest  Level Estimated
Sat 03:21:00 PM 44.6819 -75.4655 325° Northwest  Level Estimated
Sat 03:22:00 PM 44.6819 -75.4655 325° Northwest  Level Estimated
Sat 03:23:00 PM 44.6819 -75.4655 325° Northwest  Level Estimated
Sat 03:24:00 PM 44.6819 -75.4655 325° Northwest  Level Estimated
Sat 03:25:00 PM 44.6819 -75.4655 325° Northwest  Level Estimated
Sat 03:26:00 PM 44.6819 -75.4655 325° Northwest  Level Estimated
Sat 03:27:00 PM 44.6819 -75.4655 325° Northwest  Level Estimated
Sat 03:28:00 PM 44.6819 -75.4655 325° Northwest  Level Estimated
Sat 03:29:00 PM 44.6819 -75.4655 325° Northwest  Level Estimated
Sat 03:30:00 PM 44.6819 -75.4655 325° Northwest  Level Estimated
Sat 03:31:00 PM 44.6819 -75.4655 325° Northwest  Level Estimated
Sat 03:32:00 PM 44.6819 -75.4655 325° Northwest  Level Estimated
Sat 03:33:00 PM 44.6819 -75.4655 325° Northwest  Level Estimated

Login

Don't have an account? Register now (free) for customized features, flight alerts, and more!